Yasemin — 9HA2114 — position and weather

sailwx.info

Track history (hours):
 
Tides and Currents Weather Stations Pressure Air Temp Water Temp Dewpoint Dewpoint Depression Visibility Wind Speed Wind Dir Waves Ship Positions

Yasemin

Last reported at 2015-Feb-25 23:33 UTC. Time now 2015-Feb-27 04:11 UTC.
Position N 46°28' E 030°53'.

Length 105 m; draft 4 m.

Type: Cargo ship. MMSI: 249988000.

Date/timePositionNaut miles runAvg speedWind from/ knotsBaromVisibWave heightAir tempDewpointWater temp
2015-Feb-25 23:33N 46°28' E 030°53'21 1.7
2015-Feb-25 11:23N 46°09' E 031°08'29413.4
2015-Feb-24 13:32N 41°27' E 029°16'1313.4
2015-Feb-24 12:33N 41°15' E 029°09'18 9.0
2015-Feb-24 10:33N 40°58' E 028°60'4 3.3
2015-Feb-24 09:22N 40°57' E 028°55'0 0.0
2015-Feb-24 08:28N 40°57' E 028°55'0 0.0
2015-Feb-24 07:16N 40°57' E 028°55'0 0.0
2015-Feb-24 05:22N 40°57' E 028°55'0 0.0
2015-Feb-24 04:22N 40°57' E 028°55'0 0.0
2015-Feb-24 03:04N 40°57' E 028°55'0 0.0
2015-Feb-24 02:10N 40°57' E 028°55'0 0.0
2015-Feb-24 01:28N 40°57' E 028°55'0 0.0
2015-Feb-24 00:22N 40°57' E 028°55'0 0.0
2015-Feb-23 23:28N 40°57' E 028°55'0 0.0
2015-Feb-23 21:10N 40°57' E 028°55'0 0.0
2015-Feb-23 20:28N 40°57' E 028°55'0 0.0
2015-Feb-23 19:12N 40°57' E 028°55'0 0.0
2015-Feb-23 18:33N 40°57' E 028°55'3 2.9
2015-Feb-23 17:33N 40°55' E 028°56'1110.2
2015-Feb-23 16:28N 40°51' E 028°42'1513.3
2015-Feb-23 15:19N 40°48' E 028°22'24812.3
2015-Feb-22 19:07N 37°52' E 024°36'913.1
2015-Feb-22 18:27N 37°44' E 024°31'48412.1
2015-Feb-21 02:33N 36°40' E 014°29'1313.5
2015-Feb-21 01:33N 36°47' E 014°15'1413.6
2015-Feb-21 00:33N 36°53' E 013°60'1313.2
2015-Feb-20 23:33N 36°59' E 013°45'28913.0
2015-Feb-20 01:23N 38°25' E 007°57'20510.6
2015-Feb-19 06:03N 39°09' E 003°39'611.4
2015-Feb-19 05:33N 39°10' E 003°32'1111.3
2015-Feb-19 04:33N 39°12' E 003°18'1111.3
2015-Feb-19 03:33N 39°14' E 003°03'1312.8
2015-Feb-19 02:33N 39°18' E 002°47'1313.1
2015-Feb-19 01:33N 39°24' E 002°32'1312.7
2015-Feb-19 00:33N 39°30' E 002°18'1211.7
2015-Feb-18 23:33N 39°40' E 002°09'1010.1
2015-Feb-18 22:33N 39°48' E 002°02'1010.2
2015-Feb-18 21:33N 39°52' E 001°49'1010.4
2015-Feb-18 20:33N 39°55' E 001°36'1010.3
2015-Feb-18 19:34N 39°58' E 001°24'8 8.1
2015-Feb-18 18:33N 39°59' E 001°13'9 9.3
2015-Feb-18 17:33N 39°60' E 001°01'46 1.1
2015-Feb-16 22:28N 39°57' E 000°01'0 0.0
2015-Feb-16 21:04N 39°57' E 000°01'  
Track history (hours):
 
Tides and Currents Weather Stations Pressure Air Temp Water Temp Dewpoint Dewpoint Depression Visibility Wind Speed Wind Dir Waves Ship Positions

Yasemin

Last reported at 2015-Feb-25 23:33 UTC. Time now 2015-Feb-27 04:11 UTC.
Position N 46°28' E 030°53'.

Length 105 m; draft 4 m.

Type: Cargo ship. MMSI: 249988000.

Date/timePositionNaut miles runAvg speedWind from/ knotsBaromVisibWave heightAir tempDewpointWater temp
2015-Feb-25 23:33N 46°28' E 030°53'21 1.7
2015-Feb-25 11:23N 46°09' E 031°08'29413.4
2015-Feb-24 13:32N 41°27' E 029°16'1313.4
2015-Feb-24 12:33N 41°15' E 029°09'18 9.0
2015-Feb-24 10:33N 40°58' E 028°60'4 3.3
2015-Feb-24 09:22N 40°57' E 028°55'0 0.0
2015-Feb-24 08:28N 40°57' E 028°55'0 0.0
2015-Feb-24 07:16N 40°57' E 028°55'0 0.0
2015-Feb-24 05:22N 40°57' E 028°55'0 0.0
2015-Feb-24 04:22N 40°57' E 028°55'0 0.0
2015-Feb-24 03:04N 40°57' E 028°55'0 0.0
2015-Feb-24 02:10N 40°57' E 028°55'0 0.0
2015-Feb-24 01:28N 40°57' E 028°55'0 0.0
2015-Feb-24 00:22N 40°57' E 028°55'0 0.0
2015-Feb-23 23:28N 40°57' E 028°55'0 0.0
2015-Feb-23 21:10N 40°57' E 028°55'0 0.0
2015-Feb-23 20:28N 40°57' E 028°55'0 0.0
2015-Feb-23 19:12N 40°57' E 028°55'0 0.0
2015-Feb-23 18:33N 40°57' E 028°55'3 2.9
2015-Feb-23 17:33N 40°55' E 028°56'1110.2
2015-Feb-23 16:28N 40°51' E 028°42'1513.3
2015-Feb-23 15:19N 40°48' E 028°22'24812.3
2015-Feb-22 19:07N 37°52' E 024°36'913.1
2015-Feb-22 18:27N 37°44' E 024°31'48412.1
2015-Feb-21 02:33N 36°40' E 014°29'1313.5
2015-Feb-21 01:33N 36°47' E 014°15'1413.6
2015-Feb-21 00:33N 36°53' E 013°60'1313.2
2015-Feb-20 23:33N 36°59' E 013°45'28913.0
2015-Feb-20 01:23N 38°25' E 007°57'20510.6
2015-Feb-19 06:03N 39°09' E 003°39'611.4
2015-Feb-19 05:33N 39°10' E 003°32'1111.3
2015-Feb-19 04:33N 39°12' E 003°18'1111.3
2015-Feb-19 03:33N 39°14' E 003°03'1312.8
2015-Feb-19 02:33N 39°18' E 002°47'1313.1
2015-Feb-19 01:33N 39°24' E 002°32'1312.7
2015-Feb-19 00:33N 39°30' E 002°18'1211.7
2015-Feb-18 23:33N 39°40' E 002°09'1010.1
2015-Feb-18 22:33N 39°48' E 002°02'1010.2
2015-Feb-18 21:33N 39°52' E 001°49'1010.4
2015-Feb-18 20:33N 39°55' E 001°36'1010.3
2015-Feb-18 19:34N 39°58' E 001°24'8 8.1
2015-Feb-18 18:33N 39°59' E 001°13'9 9.3
2015-Feb-18 17:33N 39°60' E 001°01'46 1.1
2015-Feb-16 22:28N 39°57' E 000°01'0 0.0
2015-Feb-16 21:04N 39°57' E 000°01'  

Dump ship's entire track history